Time;durP1;ratioP1;P1;durP2;ratioP2;P2;SDS_P1;SDS_P2;PMS_P1;PMS_P2;Temp;Humidity;BMP_temperature;BMP_pressure;BME280_temperature;BME280_humidity;BME280_pressure;Samples;Min_cycle;Max_cycle;Signal;HPM_P1;HPM_P2
2022/04/16 00:01:15;;;;;;;2.10;1.90;;;;;;;11.18;66.36;99660.47;5010002;28;104006;-64
2022/04/16 00:03:43;;;;;;;2.10;2.00;;;;;;;11.03;66.65;99663.09;5003162;28;103842;-63
2022/04/16 00:06:11;;;;;;;1.95;1.80;;;;;;;11.18;66.73;99660.47;5004231;28;103238;-64
2022/04/16 00:08:41;;;;;;;1.80;1.70;;;;;;;10.69;67.78;99666.00;5006953;28;102682;-64
2022/04/16 00:11:12;;;;;;;1.92;1.83;;;;;;;10.61;68.21;99664.75;4993240;28;102841;-63
2022/04/16 00:13:40;;;;;;;1.75;1.65;;;;;;;10.88;68.01;99671.06;5006250;28;103978;-64
2022/04/16 00:16:09;;;;;;;1.75;1.50;;;;;;;11.02;67.63;99660.53;5010330;27;104151;-65
2022/04/16 00:18:37;;;;;;;1.77;1.67;;;;;;;11.02;67.05;99666.69;5006180;28;102824;-65
2022/04/16 00:21:05;;;;;;;1.90;1.80;;;;;;;10.81;67.53;99667.91;5007165;28;102611;-64
2022/04/16 00:23:33;;;;;;;1.80;1.70;;;;;;;10.48;68.57;99664.56;5011879;28;103281;-65
2022/04/16 00:26:02;;;;;;;1.90;1.80;;;;;;;10.50;68.56;99660.06;5009976;28;103196;-65
2022/04/16 00:28:30;;;;;;;2.00;1.90;;;;;;;10.34;69.18;99659.22;5006267;28;102974;-65
2022/04/16 00:31:02;;;;;;;2.80;1.90;;;;;;;10.50;68.54;99664.50;5008690;28;103884;-65
2022/04/16 00:33:32;;;;;;;1.83;1.58;;;;;;;10.75;67.73;99665.63;4991042;28;104644;-64
2022/04/16 00:35:59;;;;;;;2.17;2.00;;;;;;;10.55;68.49;99662.44;5008223;28;103180;-64
2022/04/16 00:38:28;;;;;;;2.07;1.90;;;;;;;10.99;66.80;99655.44;5005510;28;103169;-64
2022/04/16 00:40:56;;;;;;;2.00;1.90;;;;;;;10.61;67.46;99662.94;5006614;28;102712;-65
2022/04/16 00:43:27;;;;;;;2.00;1.90;;;;;;;10.47;68.11;99660.22;4989813;28;103901;-64
2022/04/16 00:45:58;;;;;;;2.40;2.05;;;;;;;10.38;69.23;99668.69;5006775;28;103199;-65
2022/04/16 00:48:27;;;;;;;2.08;1.90;;;;;;;10.71;68.25;99658.84;5006401;28;102873;-65
2022/04/16 00:50:57;;;;;;;2.33;1.88;;;;;;;10.54;68.16;99660.72;5006631;28;104004;-63
2022/04/16 00:53:27;;;;;;;1.97;1.87;;;;;;;9.87;70.48;99662.69;4987633;28;104411;-64
2022/04/16 00:55:58;;;;;;;2.40;2.20;;;;;;;9.72;71.35;99663.50;5005724;28;103198;-64
2022/04/16 00:58:28;;;;;;;2.80;2.10;;;;;;;9.77;70.91;99669.38;4983374;28;102947;-65
2022/04/16 01:00:56;;;;;;;2.17;2.03;;;;;;;9.61;71.93;99663.22;5001518;28;103973;-65
2022/04/16 01:03:26;;;;;;;2.30;2.10;;;;;;;9.50;72.15;99662.06;4988590;28;104316;-63
2022/04/16 01:05:55;;;;;;;2.63;1.95;;;;;;;9.56;72.63;99659.97;5008880;28;103204;-63
2022/04/16 01:08:25;;;;;;;2.00;1.90;;;;;;;9.40;72.65;99661.72;5009236;28;102942;-66
2022/04/16 01:10:53;;;;;;;3.50;2.10;;;;;;;9.41;72.59;99660.78;5008544;28;104874;-64
2022/04/16 01:13:21;;;;;;;2.10;1.77;;;;;;;9.59;72.07;99657.19;5006131;28;103865;-64
2022/04/16 01:15:51;;;;;;;2.45;2.25;;;;;;;9.49;71.92;99663.03;5011622;28;103049;-65
2022/04/16 01:18:19;;;;;;;2.10;2.00;;;;;;;9.38;72.47;99663.56;5003956;28;102521;-64
2022/04/16 01:20:47;;;;;;;2.47;2.20;;;;;;;9.23;73.13;99661.75;5010529;28;102687;-64
2022/04/16 01:23:16;;;;;;;2.17;2.00;;;;;;;9.17;73.78;99657.63;5004844;28;104398;-65
2022/04/16 01:25:44;;;;;;;2.10;1.90;;;;;;;9.17;73.35;99655.00;4988626;28;103882;-65
2022/04/16 01:28:13;;;;;;;2.72;2.10;;;;;;;9.19;74.04;99649.63;5008441;28;102607;-66
2022/04/16 01:30:41;;;;;;;2.80;2.00;;;;;;;9.21;73.95;99645.13;4985868;28;104461;-65
2022/04/16 01:33:10;;;;;;;2.35;2.15;;;;;;;9.06;74.38;99651.22;5006016;28;104031;-66
2022/04/16 01:35:38;;;;;;;2.38;2.20;;;;;;;8.74;75.31;99653.69;5006837;28;103283;-65
2022/04/16 01:38:07;;;;;;;2.40;2.20;;;;;;;8.71;75.22;99659.09;4986586;28;102722;-66
2022/04/16 01:40:38;;;;;;;2.38;2.22;;;;;;;8.54;76.21;99666.97;5007123;28;102587;-64
2022/04/16 01:43:06;;;;;;;2.45;2.25;;;;;;;8.65;75.74;99663.81;4988043;28;105394;-64
2022/04/16 01:45:34;;;;;;;2.45;2.20;;;;;;;8.65;75.98;99663.81;5006480;28;103226;-66
2022/04/16 01:48:02;;;;;;;2.80;2.60;;;;;;;8.53;76.85;99667.91;4992653;28;102625;-65
2022/04/16 01:50:31;;;;;;;2.42;2.28;;;;;;;8.38;76.41;99675.69;5003400;28;103487;-64
2022/04/16 01:52:59;;;;;;;2.60;2.40;;;;;;;8.34;77.32;99677.63;4984622;28;103254;-65
2022/04/16 01:55:29;;;;;;;2.70;2.50;;;;;;;8.12;77.85;99676.91;5005569;28;102670;-64
2022/04/16 01:57:59;;;;;;;2.40;2.20;;;;;;;7.96;78.56;99678.53;5006941;28;102776;-64
2022/04/16 02:00:27;;;;;;;2.47;2.33;;;;;;;7.84;79.24;99673.84;5004855;28;103889;-64
2022/04/16 02:02:57;;;;;;;2.60;2.40;;;;;;;7.86;78.68;99677.28;5005143;28;104518;-64
2022/04/16 02:05:25;;;;;;;2.40;2.30;;;;;;;7.92;78.84;99683.09;5004583;28;103387;-64
2022/04/16 02:07:54;;;;;;;2.60;2.40;;;;;;;7.89;78.60;99682.38;5004773;28;102672;-64
2022/04/16 02:10:22;;;;;;;2.70;2.50;;;;;;;8.07;77.71;99682.38;5002382;28;102820;-64
2022/04/16 02:12:50;;;;;;;2.90;2.65;;;;;;;8.13;78.28;99678.63;5004762;28;103447;-65
2022/04/16 02:15:19;;;;;;;2.65;2.45;;;;;;;8.32;77.29;99676.00;5005821;28;103282;-66
2022/04/16 02:17:47;;;;;;;2.60;2.40;;;;;;;8.31;77.04;99675.13;5006108;28;102632;-65
2022/04/16 02:20:15;;;;;;;2.57;2.37;;;;;;;8.27;76.86;99670.94;5007564;28;102738;-65
2022/04/16 02:22:44;;;;;;;3.00;2.70;;;;;;;8.09;77.95;99671.78;5002536;28;103513;-65
2022/04/16 02:25:14;;;;;;;2.67;2.47;;;;;;;7.97;78.45;99661.84;5004465;28;103271;-65
2022/04/16 02:27:42;;;;;;;2.75;2.55;;;;;;;8.04;78.56;99672.00;5001191;28;102614;-66
2022/04/16 02:30:13;;;;;;;3.30;2.80;;;;;;;8.05;78.27;99668.47;5004017;28;102774;-66
2022/04/16 02:32:43;;;;;;;2.58;2.40;;;;;;;8.28;77.72;99664.75;5006438;28;104103;-65
2022/04/16 02:35:13;;;;;;;2.60;2.40;;;;;;;8.51;76.50;99661.84;5010260;28;103397;-64
2022/04/16 02:37:42;;;;;;;2.83;2.63;;;;;;;8.44;76.12;99667.50;4988689;28;102908;-64
2022/04/16 02:40:11;;;;;;;2.60;2.40;;;;;;;8.30;76.49;99668.19;5007353;28;102745;-65
2022/04/16 02:42:40;;;;;;;2.97;2.78;;;;;;;7.97;77.93;99662.66;5010612;28;104210;-65
2022/04/16 02:47:58;;;;;;;2.25;2.15;;;;;;;7.89;78.22;99671.84;5006459;28;103117;-64
2022/04/16 02:50:28;;;;;;;2.37;2.20;;;;;;;8.28;77.38;99679.72;5006642;28;103779;-63
2022/04/16 02:52:57;;;;;;;2.80;2.50;;;;;;;8.18;77.21;99674.84;4987736;28;103941;-64
2022/04/16 02:55:25;;;;;;;2.80;2.60;;;;;;;8.22;76.85;99683.47;5009178;28;103087;-65
2022/04/16 02:57:55;;;;;;;2.90;2.70;;;;;;;8.06;77.45;99674.56;5007023;28;103067;-64
2022/04/16 03:00:24;;;;;;;2.80;2.60;;;;;;;8.00;77.79;99670.44;5004108;28;103119;-64
2022/04/16 03:02:53;;;;;;;2.60;2.40;;;;;;;7.89;78.33;99674.47;4987586;28;104209;-65
2022/04/16 03:05:23;;;;;;;3.00;2.80;;;;;;;7.79;78.36;99679.31;5014084;28;103135;-63
2022/04/16 03:07:51;;;;;;;2.95;2.70;;;;;;;7.82;78.91;99675.69;5013347;28;103217;-64
2022/04/16 03:10:21;;;;;;;3.00;2.70;;;;;;;7.83;78.69;99683.50;5008395;28;102858;-63
2022/04/16 03:12:53;;;;;;;2.70;2.50;;;;;;;7.97;78.34;99690.78;5008016;28;103191;-64
2022/04/16 03:18:09;;;;;;;3.00;2.80;;;;;;;7.57;80.25;99691.72;5010616;28;102701;-63
2022/04/16 03:20:38;;;;;;;3.10;2.80;;;;;;;7.96;78.85;99689.06;4994297;28;103017;-63
2022/04/16 03:23:07;;;;;;;2.60;2.40;;;;;;;7.89;79.44;99692.91;5007576;28;104711;-63
2022/04/16 03:25:35;;;;;;;2.80;2.60;;;;;;;7.94;78.91;99675.97;5008704;28;103183;-64
2022/04/16 03:28:03;;;;;;;3.10;2.80;;;;;;;7.90;79.84;99681.47;5009302;28;102668;-65
2022/04/16 03:30:31;;;;;;;2.80;2.60;;;;;;;8.27;78.85;99684.13;4990904;28;103030;-65
2022/04/16 03:32:59;;;;;;;2.83;2.63;;;;;;;8.15;78.31;99680.25;5008656;28;103443;-65
2022/04/16 03:35:27;;;;;;;2.90;2.70;;;;;;;8.24;78.74;99673.69;5009310;28;104020;-65
2022/04/16 03:38:00;;;;;;;2.70;2.50;;;;;;;8.37;77.95;99663.44;5011593;28;102652;-64
2022/04/16 03:40:30;;;;;;;2.53;2.33;;;;;;;8.61;77.26;99668.41;5006319;28;102681;-65
2022/04/16 03:43:00;;;;;;;2.92;2.63;;;;;;;8.55;76.85;99673.97;4990601;28;104441;-65
2022/04/16 03:45:30;;;;;;;2.90;2.70;;;;;;;8.53;76.43;99672.34;5009685;28;103276;-65
2022/04/16 03:48:02;;;;;;;3.00;2.80;;;;;;;8.37;77.04;99673.97;5008893;28;102853;-65
2022/04/16 03:50:33;;;;;;;2.83;2.63;;;;;;;8.37;77.17;99677.47;5008445;28;102632;-65
2022/04/16 03:53:04;;;;;;;3.30;2.90;;;;;;;8.37;76.81;99679.25;5006036;28;103694;-65
2022/04/16 04:01:07;;;;;;;2.40;2.20;;;;;;;9.38;73.65;99670.63;5011771;28;102674;-65
2022/04/16 04:03:36;;;;;;;2.85;2.65;;;;;;;8.91;74.97;99683.59;4998355;28;103966;-65
2022/04/16 04:06:05;;;;;;;2.92;2.72;;;;;;;8.42;76.47;99688.63;5007611;28;103236;-65
2022/04/16 04:08:35;;;;;;;2.78;2.58;;;;;;;8.91;74.85;99691.50;5006124;28;102865;-66
2022/04/16 04:11:03;;;;;;;2.72;2.53;;;;;;;9.24;73.64;99689.81;5006897;28;103760;-66
2022/04/16 04:13:33;;;;;;;2.55;2.35;;;;;;;9.39;72.73;99689.03;5006855;28;104392;-65
2022/04/16 04:16:01;;;;;;;2.70;2.50;;;;;;;9.18;73.88;99695.38;5007959;28;103321;-65
2022/04/16 04:18:30;;;;;;;3.13;2.90;;;;;;;9.20;73.72;99694.41;5006817;28;102880;-65
2022/04/16 04:20:58;;;;;;;2.92;2.70;;;;;;;9.26;72.82;99703.78;5003126;28;103792;-64
2022/04/16 04:23:26;;;;;;;3.35;3.15;;;;;;;8.80;74.54;99704.38;5011390;28;103887;-64
2022/04/16 04:25:56;;;;;;;3.40;3.10;;;;;;;8.30;77.46;99710.31;5008629;28;103240;-65
2022/04/16 04:28:24;;;;;;;3.17;2.92;;;;;;;8.72;75.30;99705.63;5006843;28;103062;-64
2022/04/16 04:30:52;;;;;;;3.50;3.25;;;;;;;8.62;75.70;99717.50;5010242;28;102706;-66
2022/04/16 04:33:20;;;;;;;3.25;3.05;;;;;;;8.64;76.35;99715.69;4986738;28;104292;-61
2022/04/16 04:35:50;;;;;;;3.20;3.00;;;;;;;8.45;76.91;99721.91;4991050;28;104179;-62
2022/04/16 04:38:18;;;;;;;2.70;2.50;;;;;;;8.34;78.41;99717.13;5009147;28;102886;-62
2022/04/16 04:40:46;;;;;;;3.50;3.10;;;;;;;8.22;77.77;99722.09;5008471;28;103247;-67
2022/04/16 04:43:15;;;;;;;2.87;2.67;;;;;;;8.31;78.45;99714.63;5008926;28;103343;-62
2022/04/16 04:45:46;;;;;;;2.97;2.37;;;;;;;8.50;77.45;99706.72;5005198;28;103017;-68
2022/04/16 04:48:14;;;;;;;2.47;2.27;;;;;;;8.64;76.80;99713.03;4986219;28;102662;-64
2022/04/16 04:50:42;;;;;;;2.37;2.20;;;;;;;8.72;76.59;99716.16;5006677;28;102795;-69
2022/04/16 04:53:10;;;;;;;2.70;2.50;;;;;;;9.12;75.70;99717.63;4993154;28;103212;-69
2022/04/16 04:55:38;;;;;;;3.10;2.80;;;;;;;8.58;77.46;99715.97;4985248;28;103583;-68
2022/04/16 04:58:06;;;;;;;3.27;2.77;;;;;;;8.72;76.59;99715.28;5005699;28;102652;-63
2022/04/16 05:00:35;;;;;;;2.60;2.40;;;;;;;9.31;74.24;99718.44;5011219;28;104099;-63
2022/04/16 05:03:03;;;;;;;3.53;3.10;;;;;;;8.93;75.00;99721.28;5008122;27;103227;-68
2022/04/16 05:05:31;;;;;;;3.23;2.97;;;;;;;8.70;76.85;99725.88;5006066;28;103334;-68
2022/04/16 05:07:59;;;;;;;2.00;1.90;;;;;;;8.90;75.65;99732.81;5005513;28;102993;-68
2022/04/16 05:10:27;;;;;;;1.90;1.80;;;;;;;9.03;74.69;99735.72;5004387;28;103803;-68
2022/04/16 05:12:57;;;;;;;2.80;2.60;;;;;;;9.47;74.55;99729.03;4990771;28;104008;-68
2022/04/16 05:15:25;;;;;;;2.53;2.33;;;;;;;9.30;75.45;99732.53;4990894;28;105245;-68
2022/04/16 05:17:55;;;;;;;2.50;2.30;;;;;;;9.32;75.19;99735.94;5002813;28;102674;-68
2022/04/16 05:20:23;;;;;;;3.30;3.00;;;;;;;8.90;77.16;99742.53;5000785;28;103739;-64
2022/04/16 05:22:51;;;;;;;2.80;2.60;;;;;;;9.47;75.58;99738.72;4981633;28;104282;-64
2022/04/16 05:25:19;;;;;;;3.33;2.97;;;;;;;9.26;75.38;99735.44;4991420;28;103098;-64
2022/04/16 05:27:47;;;;;;;3.50;3.20;;;;;;;9.10;74.93;99734.47;4984385;28;102752;-64
2022/04/16 05:30:22;;;;;;;2.53;2.33;;;;;;;9.79;73.36;99743.19;4958188;28;103239;-64
2022/04/16 05:32:50;;;;;;;3.70;3.40;;;;;;;9.44;74.35;99739.75;4983698;28;104439;-63
2022/04/16 05:35:20;;;;;;;3.03;2.83;;;;;;;9.75;74.12;99739.00;4988320;28;103251;-63
2022/04/16 05:37:50;;;;;;;3.25;3.05;;;;;;;9.94;73.72;99737.09;4985275;28;102581;-63
2022/04/16 05:40:19;;;;;;;3.70;3.17;;;;;;;10.07;72.15;99742.59;4966862;28;104123;-63
2022/04/16 05:42:47;;;;;;;2.88;2.67;;;;;;;10.32;71.69;99750.91;4984199;28;103256;-64
2022/04/16 05:45:15;;;;;;;2.92;2.72;;;;;;;10.22;72.33;99747.91;4978594;28;103225;-63
2022/04/16 05:47:44;;;;;;;3.23;3.03;;;;;;;10.50;71.57;99749.88;4993877;28;103381;-64
2022/04/16 05:50:12;;;;;;;2.80;2.60;;;;;;;10.53;71.12;99762.94;4991761;28;104018;-64
2022/04/16 05:52:45;;;;;;;2.63;2.33;;;;;;;10.84;70.58;99760.28;4965922;28;104076;-63
2022/04/16 05:55:13;;;;;;;3.20;2.90;;;;;;;10.74;70.35;99756.47;4990472;28;104476;-64
2022/04/16 05:57:42;;;;;;;2.63;2.42;;;;;;;10.75;71.12;99750.22;4975634;28;102759;-64
2022/04/16 06:00:13;;;;;;;3.50;3.30;;;;;;;10.48;70.64;99751.75;4988711;28;104378;-64
2022/04/16 06:02:42;;;;;;;2.90;2.70;;;;;;;10.65;71.31;99748.19;4973483;28;103296;-64
2022/04/16 06:05:10;;;;;;;3.13;2.92;;;;;;;10.92;69.73;99763.34;4976003;27;103200;-64
2022/04/16 06:07:38;;;;;;;3.20;2.90;;;;;;;10.89;70.80;99755.56;5006477;28;102732;-64
2022/04/16 06:10:11;;;;;;;3.35;3.05;;;;;;;10.50;71.02;99760.44;5001291;28;104494;-64
2022/04/16 06:12:41;;;;;;;3.50;3.20;;;;;;;10.49;71.90;99764.06;4984273;28;103997;-63
2022/04/16 06:15:09;;;;;;;3.80;3.50;;;;;;;10.44;72.35;99776.66;4986760;28;104141;-63
2022/04/16 06:17:37;;;;;;;3.25;2.97;;;;;;;10.71;71.48;99775.13;4983552;28;103041;-64
2022/04/16 06:20:08;;;;;;;3.50;3.20;;;;;;;10.13;72.75;99772.19;4997830;28;102866;-64
2022/04/16 06:22:36;;;;;;;3.50;3.30;;;;;;;10.39;72.71;99778.69;4990509;28;104757;-64
2022/04/16 06:25:05;;;;;;;3.40;3.20;;;;;;;10.16;72.96;99781.75;4984269;28;104120;-62
2022/04/16 06:27:38;;;;;;;3.33;3.13;;;;;;;10.35;72.53;99782.44;4998577;28;102609;-63
2022/04/16 06:30:09;;;;;;;3.80;3.50;;;;;;;10.70;71.75;99778.69;4992611;27;103122;-63
2022/04/16 06:32:38;;;;;;;3.67;3.38;;;;;;;10.79;71.00;99788.78;5005991;28;103507;-63
2022/04/16 06:35:06;;;;;;;3.40;3.10;;;;;;;10.97;70.71;99787.75;4982437;28;103049;-63
2022/04/16 06:37:35;;;;;;;4.23;3.53;;;;;;;10.19;72.31;99781.56;5002482;28;102860;-63
2022/04/16 06:40:05;;;;;;;3.80;3.50;;;;;;;10.16;72.80;99782.56;4976268;28;102744;-63
2022/04/16 06:42:33;;;;;;;4.00;3.63;;;;;;;10.51;71.44;99774.53;5000287;28;104160;-63
2022/04/16 06:45:03;;;;;;;4.20;3.70;;;;;;;10.28;72.18;99778.41;5002758;28;103286;-63
2022/04/16 06:47:31;;;;;;;3.40;3.20;;;;;;;10.53;71.75;99789.34;4996884;27;102731;-63
2022/04/16 06:49:59;;;;;;;4.18;3.88;;;;;;;9.93;73.51;99787.34;5010274;28;104210;-68
2022/04/16 06:52:27;;;;;;;4.25;3.85;;;;;;;10.33;71.91;99782.50;5011878;28;103231;-63
2022/04/16 06:54:58;;;;;;;3.72;3.42;;;;;;;10.62;71.81;99783.56;5013381;28;103173;-64
2022/04/16 06:57:26;;;;;;;4.13;3.73;;;;;;;9.84;73.67;99796.59;4984142;28;102812;-64
2022/04/16 07:00:05;;;;;;;4.20;3.90;;;;;;;10.26;73.30;99791.72;5006088;28;104002;-64
2022/04/16 07:02:36;;;;;;;3.85;3.55;;;;;;;10.54;72.74;99793.72;4992188;28;103709;-62
2022/04/16 07:05:06;;;;;;;3.50;3.30;;;;;;;11.03;69.78;99787.38;5018232;28;103530;-66
2022/04/16 07:07:35;;;;;;;3.60;3.30;;;;;;;11.38;68.63;99789.78;5008211;28;102590;-66
2022/04/16 07:10:07;;;;;;;3.90;3.60;;;;;;;11.34;68.26;99793.56;5009995;28;103974;-64
2022/04/16 07:12:35;;;;;;;4.38;3.97;;;;;;;11.17;68.18;99798.97;5012616;28;103253;-65
2022/04/16 07:15:05;;;;;;;3.58;3.28;;;;;;;11.54;67.72;99795.88;5010306;28;103190;-65
2022/04/16 07:17:33;;;;;;;4.20;3.80;;;;;;;10.08;73.41;99791.78;5009961;27;102708;-63
2022/04/16 07:20:02;;;;;;;3.83;3.50;;;;;;;10.49;73.36;99801.03;4990869;28;102750;-64
2022/04/16 07:22:30;;;;;;;4.35;3.85;;;;;;;11.28;71.66;99801.84;5003601;28;104026;-64
2022/04/16 07:24:58;;;;;;;4.68;4.25;;;;;;;10.54;72.61;99796.34;5009915;28;103190;-64
2022/04/16 07:27:26;;;;;;;3.42;3.13;;;;;;;11.57;70.06;99793.03;5007139;28;103689;-65
2022/04/16 07:29:58;;;;;;;4.65;4.25;;;;;;;10.75;70.69;99797.78;5010454;28;102747;-65
2022/04/16 07:32:31;;;;;;;4.67;4.20;;;;;;;11.14;71.68;99809.72;5012361;28;103020;-65
2022/04/16 07:34:59;;;;;;;4.37;3.97;;;;;;;11.49;70.52;99800.59;5010548;28;103294;-65
2022/04/16 07:37:28;;;;;;;3.90;3.60;;;;;;;11.64;69.86;99800.56;5013814;28;103022;-65
2022/04/16 07:39:57;;;;;;;4.60;4.20;;;;;;;11.16;71.35;99813.13;5009537;28;102814;-65
2022/04/16 07:42:27;;;;;;;3.88;3.58;;;;;;;11.87;69.48;99816.91;5007684;28;104229;-65
2022/04/16 07:44:55;;;;;;;4.83;4.43;;;;;;;11.72;68.28;99817.78;5010014;28;103167;-66
2022/04/16 07:47:23;;;;;;;4.90;4.50;;;;;;;11.60;69.39;99814.03;5017785;28;102993;-66
2022/04/16 07:49:55;;;;;;;4.68;4.30;;;;;;;12.02;67.80;99811.50;5014819;28;102712;-66
2022/04/16 07:52:25;;;;;;;5.72;5.13;;;;;;;10.21;73.15;99829.88;5007717;28;103992;-66
2022/04/16 07:54:53;;;;;;;4.70;4.30;;;;;;;11.30;71.08;99815.84;5009273;28;103213;-66
2022/04/16 07:57:21;;;;;;;5.20;4.80;;;;;;;11.32;70.61;99817.44;5014625;28;102548;-66
2022/04/16 07:59:49;;;;;;;5.07;4.67;;;;;;;11.21;70.73;99825.16;5011942;28;102847;-65
2022/04/16 08:02:18;;;;;;;5.73;4.97;;;;;;;10.43;73.91;99822.50;5011579;28;103788;-65
2022/04/16 08:04:47;;;;;;;5.30;4.88;;;;;;;10.47;73.80;99824.03;4991593;28;104275;-66
2022/04/16 08:07:17;;;;;;;5.55;5.05;;;;;;;10.93;72.76;99833.78;5005864;28;102554;-65
2022/04/16 08:09:45;;;;;;;5.20;4.70;;;;;;;11.37;72.39;99833.03;5000486;28;102559;-65
2022/04/16 08:12:14;;;;;;;5.75;5.25;;;;;;;11.56;71.45;99839.00;4987913;28;104568;-65
2022/04/16 08:14:42;;;;;;;4.97;4.55;;;;;;;11.97;69.50;99840.06;4982243;28;103317;-65
2022/04/16 08:17:10;;;;;;;5.53;5.03;;;;;;;12.22;68.73;99836.78;4983851;28;103108;-65
2022/04/16 08:19:38;;;;;;;5.47;5.07;;;;;;;12.14;67.92;99834.59;4983180;28;102918;-65
2022/04/16 08:22:07;;;;;;;5.47;5.03;;;;;;;12.17;69.21;99839.72;4980887;28;104024;-65
2022/04/16 08:24:41;;;;;;;5.40;4.90;;;;;;;12.44;67.36;99839.81;4970379;28;104170;-65
2022/04/16 08:27:09;;;;;;;5.82;5.30;;;;;;;11.84;69.70;99844.41;4982183;28;102681;-67
2022/04/16 08:29:38;;;;;;;5.65;5.15;;;;;;;12.12;69.91;99839.16;4980471;28;103663;-66
2022/04/16 08:32:07;;;;;;;6.60;5.57;;;;;;;11.80;69.07;99842.88;4966952;28;104239;-66
2022/04/16 08:34:50;;;;;;;6.27;5.57;;;;;;;11.10;71.62;99850.50;4975310;28;103500;-65
2022/04/16 08:37:21;;;;;;;6.55;5.95;;;;;;;10.98;71.29;99844.09;4990275;28;102743;-64
2022/04/16 08:39:51;;;;;;;6.40;5.90;;;;;;;11.53;68.78;99844.47;4990006;28;103217;-65
2022/04/16 08:42:21;;;;;;;6.53;5.67;;;;;;;11.54;69.38;99848.81;4987463;28;104380;-65
2022/04/16 08:44:50;;;;;;;6.88;5.95;;;;;;;11.18;69.32;99858.84;4991501;28;103353;-64
2022/04/16 08:47:18;;;;;;;6.55;5.95;;;;;;;11.67;68.63;99847.16;4986639;28;102984;-64
2022/04/16 08:49:48;;;;;;;6.82;6.22;;;;;;;11.91;68.27;99850.16;4989682;28;103488;-65
2022/04/16 08:52:18;;;;;;;6.75;6.25;;;;;;;11.63;68.53;99846.47;4968463;28;104359;-65
2022/04/16 08:54:46;;;;;;;7.20;6.50;;;;;;;11.63;67.83;99851.78;4984290;28;102945;-66
2022/04/16 08:57:16;;;;;;;7.80;7.10;;;;;;;11.20;69.96;99857.00;4977575;28;102848;-65
2022/04/16 08:59:50;;;;;;;8.05;7.35;;;;;;;11.08;70.35;99858.53;4986626;28;104014;-64
2022/04/16 09:02:19;;;;;;;7.80;7.20;;;;;;;11.84;67.97;99862.94;4983912;28;102987;-64
2022/04/16 09:04:49;;;;;;;8.23;7.53;;;;;;;12.20;65.81;99854.59;4986943;28;102903;-65
2022/04/16 09:07:17;;;;;;;7.90;7.25;;;;;;;12.02;67.33;99859.19;4982156;28;103167;-65
2022/04/16 09:09:46;;;;;;;8.60;7.90;;;;;;;11.12;69.59;99869.78;4957091;28;103899;-65
2022/04/16 09:12:19;;;;;;;8.70;8.00;;;;;;;11.16;70.77;99868.66;4980827;28;103055;-65
2022/04/16 09:14:48;;;;;;;8.98;8.27;;;;;;;10.68;71.58;99869.59;4979911;28;103277;-65
2022/04/16 09:17:17;;;;;;;9.80;8.98;;;;;;;10.88;72.31;99864.06;4986663;28;102666;-65
2022/04/16 09:19:54;;;;;;;8.85;8.15;;;;;;;11.21;70.77;99869.25;4975995;28;102939;-65
2022/04/16 09:22:32;;;;;;;8.80;8.00;;;;;;;11.59;70.33;99862.66;4996661;28;103299;-66
2022/04/16 09:25:02;;;;;;;8.70;8.00;;;;;;;11.84;69.95;99870.88;5001247;28;103513;-66
2022/04/16 09:27:41;;;;;;;10.65;9.73;;;;;;;11.10;70.46;99872.50;4989379;28;103088;-65
2022/04/16 09:30:10;;;;;;;9.27;8.47;;;;;;;11.30;69.92;99864.31;4987458;28;102623;-66
2022/04/16 09:32:45;;;;;;;8.18;7.45;;;;;;;11.39;69.94;99870.88;4974444;28;103201;-65
2022/04/16 09:35:29;;;;;;;7.57;6.97;;;;;;;11.72;67.37;99868.09;4990664;28;104097;-65
2022/04/16 09:38:12;;;;;;;8.77;8.00;;;;;;;11.85;69.09;99872.56;5000211;28;102932;-65
2022/04/16 09:40:41;;;;;;;8.45;7.75;;;;;;;11.33;69.12;99865.94;4986639;28;103606;-65
2022/04/16 09:43:11;;;;;;;9.52;8.63;;;;;;;11.80;68.79;99874.66;4990253;28;103266;-65
2022/04/16 09:45:40;;;;;;;9.57;8.68;;;;;;;12.38;66.89;99865.88;4990357;28;103267;-64
2022/04/16 09:48:11;;;;;;;9.05;8.25;;;;;;;11.59;67.66;99875.88;4992360;28;102673;-64
2022/04/16 09:50:40;;;;;;;8.13;7.43;;;;;;;11.64;68.15;99872.03;4989882;28;103842;-65
2022/04/16 09:53:10;;;;;;;7.97;7.28;;;;;;;11.80;67.00;99868.50;4981367;28;104258;-64
2022/04/16 09:55:41;;;;;;;8.15;7.45;;;;;;;12.15;65.38;99876.03;4988163;28;104377;-65
2022/04/16 09:58:11;;;;;;;7.87;7.27;;;;;;;12.34;65.07;99874.94;4993538;28;102993;-65
2022/04/16 10:00:41;;;;;;;8.70;7.90;;;;;;;12.74;64.53;99863.56;4994519;28;104251;-65
2022/04/16 10:03:32;;;;;;;8.10;7.40;;;;;;;13.12;62.53;99864.66;4993318;28;103910;-65
2022/04/16 10:06:01;;;;;;;8.50;7.80;;;;;;;12.78;64.32;99871.22;4988312;28;103768;-65
2022/04/16 10:08:29;;;;;;;8.80;8.00;;;;;;;13.07;64.58;99866.78;5003168;28;102855;-65
2022/04/16 10:10:58;;;;;;;8.48;7.68;;;;;;;12.38;63.31;99877.28;4995900;28;103075;-65
2022/04/16 10:13:33;;;;;;;8.80;7.90;;;;;;;12.20;63.62;99868.69;4993430;28;103065;-65
2022/04/16 10:16:11;;;;;;;7.57;6.97;;;;;;;13.59;60.99;99863.34;4989068;28;103214;-65
2022/04/16 10:18:40;;;;;;;8.63;7.93;;;;;;;12.94;61.60;99875.59;4987664;28;102650;-65
2022/04/16 10:21:15;;;;;;;8.17;7.47;;;;;;;13.14;60.37;99878.69;4992205;28;104325;-65
2022/04/16 10:23:46;;;;;;;8.32;7.63;;;;;;;13.10;60.68;99877.19;4988308;28;104120;-64
2022/04/16 10:26:15;;;;;;;8.68;7.90;;;;;;;13.06;61.78;99880.94;4996306;28;102961;-65
2022/04/16 10:28:45;;;;;;;8.70;7.80;;;;;;;13.60;60.54;99870.38;4988738;28;102683;-65
2022/04/16 10:31:22;;;;;;;8.43;7.72;;;;;;;14.00;57.75;99874.72;4989771;28;104123;-65
2022/04/16 10:34:01;;;;;;;7.72;7.03;;;;;;;12.72;60.16;99886.66;4993507;28;103310;-64
2022/04/16 10:36:32;;;;;;;7.60;7.00;;;;;;;12.91;59.49;99879.28;4991823;28;103375;-65
2022/04/16 10:39:01;;;;;;;7.78;7.07;;;;;;;12.62;61.08;99883.75;4989870;28;102578;-64
2022/04/16 10:41:29;;;;;;;7.70;7.03;;;;;;;13.81;58.45;99875.09;4993375;28;104254;-65
2022/04/16 10:44:00;;;;;;;6.95;6.35;;;;;;;13.93;55.74;99868.13;4993447;28;103351;-65
2022/04/16 10:46:44;;;;;;;7.10;6.50;;;;;;;13.79;57.96;99874.34;4988047;28;104264;-64
2022/04/16 10:49:13;;;;;;;7.30;6.60;;;;;;;13.57;58.20;99875.88;4993956;28;102649;-65
2022/04/16 10:51:42;;;;;;;8.40;7.60;;;;;;;13.42;58.34;99871.59;4983153;28;102592;-67
2022/04/16 10:54:11;;;;;;;7.55;6.93;;;;;;;13.80;56.26;99877.88;4988468;28;103326;-67
2022/04/16 10:56:52;;;;;;;6.80;6.17;;;;;;;14.56;55.87;99878.81;4989302;28;103262;-67
2022/04/16 10:59:36;;;;;;;5.00;4.60;;;;;;;14.72;51.08;99873.25;5003562;28;102739;-66
2022/04/16 11:02:19;;;;;;;5.30;4.90;;;;;;;13.98;53.56;99871.31;4992713;28;104082;-67
2022/04/16 11:05:01;;;;;;;5.30;4.50;;;;;;;13.50;54.66;99871.94;4990916;28;104726;-66
2022/04/16 11:07:30;;;;;;;5.45;5.05;;;;;;;13.82;54.22;99881.25;4990855;28;103208;-66
2022/04/16 11:10:01;;;;;;;6.10;5.55;;;;;;;13.73;54.60;99879.22;4985528;28;102690;-66
2022/04/16 11:12:30;;;;;;;5.75;5.18;;;;;;;14.17;55.67;99858.47;4991898;28;102709;-67
2022/04/16 11:14:59;;;;;;;5.55;5.05;;;;;;;13.89;56.03;99863.97;4989781;28;104122;-67
2022/04/16 11:17:28;;;;;;;5.50;5.00;;;;;;;13.06;56.46;99859.72;4989169;28;103257;-67
2022/04/16 11:20:00;;;;;;;5.55;5.05;;;;;;;12.60;56.97;99867.06;4989458;28;102755;-67
2022/04/16 11:22:29;;;;;;;4.83;4.43;;;;;;;13.11;57.14;99862.09;4992096;28;104162;-66
2022/04/16 11:24:57;;;;;;;4.03;3.72;;;;;;;14.22;53.32;99863.47;4987870;28;103829;-67
2022/04/16 11:35:57;;;;;;;5.73;5.23;;;;;;;13.47;53.46;99854.41;4989188;28;103366;-67
2022/04/16 11:38:28;;;;;;;5.80;5.20;;;;;;;14.39;53.50;99845.44;4990990;28;103271;-67
2022/04/16 11:40:57;;;;;;;4.90;4.50;;;;;;;13.23;54.10;99851.56;4987245;28;103838;-67
2022/04/16 11:43:25;;;;;;;4.13;3.73;;;;;;;13.12;53.62;99859.34;4991741;28;102706;-67
2022/04/16 11:45:56;;;;;;;5.18;4.68;;;;;;;13.79;53.19;99861.06;4983485;28;104099;-67
2022/04/16 11:48:25;;;;;;;5.97;5.47;;;;;;;12.37;54.83;99861.50;4988397;28;103409;-66
2022/04/16 11:50:54;;;;;;;5.63;5.13;;;;;;;13.21;54.67;99852.59;4991179;28;102736;-67
2022/04/16 11:53:22;;;;;;;5.10;4.70;;;;;;;13.55;52.85;99849.44;4991408;28;102871;-66
2022/04/16 11:56:01;;;;;;;5.47;4.50;;;;;;;14.87;49.06;99858.88;4988675;28;103257;-67
2022/04/16 11:58:32;;;;;;;5.87;5.37;;;;;;;14.63;48.27;99863.25;4989292;28;103529;-67
2022/04/16 12:01:04;;;;;;;4.90;4.50;;;;;;;14.63;49.29;99864.13;4988862;28;102939;-67